Time;durP1;ratioP1;P1;durP2;ratioP2;P2;SDS_P1;SDS_P2;PMS_P1;PMS_P2;Temp;Humidity;BMP_temperature;BMP_pressure;BME280_temperature;BME280_humidity;BME280_pressure;Samples;Min_cycle;Max_cycle;Signal;HPM_P1;HPM_P2
2022/01/03 00:00:14;;;;;;;;;8.00;5.25;;;;;13.46;65.61;101462.69;5060161;28;45449;-49
2022/01/03 00:02:41;;;;;;;;;6.50;3.50;;;;;13.45;65.84;101460.94;5060121;28;47508;-49
2022/01/03 00:05:08;;;;;;;;;7.00;3.50;;;;;13.42;66.15;101456.59;5059456;28;45315;-49
2022/01/03 00:07:42;;;;;;;;;7.75;5.00;;;;;13.43;65.82;101474.19;5060249;28;45453;-45
2022/01/03 00:10:10;;;;;;;;;6.50;3.75;;;;;13.41;66.08;101462.75;5041631;28;45486;-45
2022/01/03 00:12:36;;;;;;;;;5.00;4.00;;;;;13.39;65.74;101475.09;5042077;28;47168;-48
2022/01/03 00:15:04;;;;;;;;;6.25;5.50;;;;;13.36;65.90;101474.22;5060001;28;45268;-48
2022/01/03 00:17:29;;;;;;;;;8.25;5.00;;;;;13.33;65.90;101477.78;5059904;28;45315;-49
2022/01/03 00:19:54;;;;;;;;;6.75;2.00;;;;;13.35;66.01;101470.72;5059783;28;45450;-47
2022/01/03 00:22:22;;;;;;;;;5.00;3.00;;;;;13.31;66.22;101477.81;5059761;28;45979;-47
2022/01/03 00:25:03;;;;;;;;;4.00;2.00;;;;;13.30;66.16;101481.34;5042008;28;45407;-48
2022/01/03 00:27:39;;;;;;;;;8.25;4.75;;;;;13.29;66.00;101489.28;5059797;28;45355;-48
2022/01/03 00:30:05;;;;;;;;;6.25;4.00;;;;;13.30;65.90;101491.03;5035661;28;45357;-47
2022/01/03 00:32:33;;;;;;;;;8.25;3.50;;;;;13.28;65.93;101492.81;5059313;28;45277;-44
2022/01/03 00:34:59;;;;;;;;;5.00;3.00;;;;;13.28;65.85;101487.53;5059734;28;45245;-45
2022/01/03 00:37:27;;;;;;;;;6.25;2.75;;;;;13.27;65.75;101501.63;5053057;28;45333;-47
2022/01/03 00:39:53;;;;;;;;;7.50;2.50;;;;;13.25;65.79;101492.88;5021158;28;45607;-48
2022/01/03 00:42:19;;;;;;;;;5.25;3.50;;;;;13.25;65.54;101493.75;5039559;28;45350;-45
2022/01/03 00:44:45;;;;;;;;;6.75;3.00;;;;;13.25;65.97;101498.16;5045096;28;45332;-45
2022/01/03 00:47:11;;;;;;;;;2.75;2.50;;;;;13.23;65.86;101500.81;5021704;28;45336;-46
2022/01/03 00:49:40;;;;;;;;;6.00;5.00;;;;;13.20;65.94;101500.84;5021389;28;46613;-50
2022/01/03 00:52:06;;;;;;;;;6.75;3.00;;;;;13.19;65.95;101504.38;5039589;28;45232;-48
2022/01/03 00:54:31;;;;;;;;;3.50;1.00;;;;;13.15;66.16;101503.53;5038945;28;45261;-44
2022/01/03 00:57:06;;;;;;;;;4.00;3.75;;;;;13.17;66.00;101493.84;5039667;28;45217;-46
2022/01/03 00:59:38;;;;;;;;;6.50;2.25;;;;;13.16;65.81;101497.38;5039262;28;45230;-49
2022/01/03 01:02:07;;;;;;;;;8.75;3.25;;;;;13.14;66.11;101488.63;5039284;28;45368;-48
2022/01/03 01:04:34;;;;;;;;;7.00;2.50;;;;;13.15;66.35;101489.47;5039024;28;45370;-48
2022/01/03 01:07:00;;;;;;;;;7.25;3.00;;;;;13.13;66.08;101488.63;5039082;28;45391;-49
2022/01/03 01:09:28;;;;;;;;;6.75;3.75;;;;;13.14;66.11;101490.38;5038683;28;45309;-48
2022/01/03 01:11:56;;;;;;;;;5.50;3.50;;;;;13.13;66.12;101486.88;5039170;28;46314;-49
2022/01/03 01:14:23;;;;;;;;;7.00;5.50;;;;;13.12;65.87;101492.16;5021048;28;45265;-49
2022/01/03 01:16:49;;;;;;;;;3.25;3.00;;;;;13.10;66.08;101486.03;5041443;28;45332;-49
2022/01/03 01:19:16;;;;;;;;;5.00;4.00;;;;;13.13;66.19;101501.81;5024493;28;45341;-48
2022/01/03 01:21:42;;;;;;;;;8.00;3.50;;;;;13.13;66.23;101500.06;5042588;28;46336;-48
2022/01/03 01:24:07;;;;;;;;;3.25;2.00;;;;;13.13;66.02;101489.50;5042139;28;45463;-49
2022/01/03 01:29:17;;;;;;;;;4.00;1.25;;;;;13.11;65.85;101491.28;5049802;28;45340;-49
2022/01/03 01:31:48;;;;;;;;;3.00;3.00;;;;;13.08;66.38;101491.34;5055654;28;45360;-49
2022/01/03 01:34:22;;;;;;;;;11.25;4.25;;;;;13.09;66.36;101492.19;5062618;28;45327;-47
2022/01/03 01:36:52;;;;;;;;;8.25;4.00;;;;;13.07;66.61;101486.06;5061221;28;45282;-47
2022/01/03 01:39:20;;;;;;;;;4.75;4.50;;;;;13.08;66.19;101493.09;5041982;28;45322;-47
2022/01/03 01:41:46;;;;;;;;;7.50;3.25;;;;;13.08;66.05;101490.44;5024078;28;48229;-49
2022/01/03 01:44:13;;;;;;;;;12.50;4.75;;;;;13.09;65.92;101493.06;5042136;28;45744;-49
2022/01/03 01:46:46;;;;;;;;;4.25;3.25;;;;;13.10;65.94;101491.31;5042202;28;45512;-48
2022/01/03 01:49:17;;;;;;;;;9.50;4.75;;;;;13.10;66.04;101488.66;5042233;28;45404;-46
2022/01/03 01:51:46;;;;;;;;;7.00;3.25;;;;;13.10;66.39;101489.53;5041839;28;46978;-49
2022/01/03 01:54:15;;;;;;;;;5.00;3.50;;;;;13.11;66.63;101487.78;5023939;28;45236;-49
2022/01/03 01:56:55;;;;;;;;;5.50;4.00;;;;;13.08;66.48;101485.16;5042037;28;45321;-47
2022/01/03 01:59:38;;;;;;;;;8.00;3.00;;;;;13.11;66.62;101474.59;5041953;28;45234;-45
2022/01/03 02:02:06;;;;;;;;;9.00;4.75;;;;;13.10;66.47;101472.84;5050644;28;46960;-46
2022/01/03 02:04:47;;;;;;;;;6.25;4.00;;;;;13.11;66.50;101464.03;5061788;28;45352;-48
2022/01/03 02:07:27;;;;;;;;;6.75;5.25;;;;;13.09;66.54;101463.16;5061906;28;45361;-45
2022/01/03 02:10:15;;;;;;;;;7.00;4.75;;;;;13.08;66.64;101475.50;5061399;28;45494;-48
2022/01/03 02:12:46;;;;;;;;;5.25;2.00;;;;;13.08;66.26;101466.69;5061661;28;46175;-47
2022/01/03 02:15:16;;;;;;;;;7.25;4.00;;;;;13.06;66.77;101472.00;5061904;28;45313;-48
2022/01/03 02:17:46;;;;;;;;;7.00;2.50;;;;;13.07;66.63;101468.47;5061769;28;45314;-45
2022/01/03 02:20:15;;;;;;;;;5.75;4.00;;;;;13.05;66.24;101469.38;5061744;28;45406;-45
2022/01/03 02:22:42;;;;;;;;;4.00;1.00;;;;;13.06;66.19;101479.06;5061433;28;46149;-47
2022/01/03 02:25:10;;;;;;;;;6.75;4.00;;;;;13.01;66.34;101472.03;5061462;28;45336;-44
2022/01/03 02:27:36;;;;;;;;;6.00;2.75;;;;;12.99;66.55;101465.94;5061220;28;45182;-46
2022/01/03 02:30:04;;;;;;;;;5.50;4.00;;;;;12.98;66.70;101464.19;5055712;28;45190;-46
2022/01/03 02:32:30;;;;;;;;;6.25;3.00;;;;;12.97;66.75;101472.13;5060769;28;46435;-45
2022/01/03 02:34:56;;;;;;;;;7.00;5.50;;;;;12.92;66.34;101466.91;5061632;28;45261;-48
2022/01/03 02:37:23;;;;;;;;;5.25;5.00;;;;;12.90;66.56;101476.59;5055188;28;45332;-47
2022/01/03 02:39:49;;;;;;;;;6.50;5.00;;;;;12.88;66.44;101481.03;5041015;28;45402;-48
2022/01/03 02:42:15;;;;;;;;;5.00;2.50;;;;;12.87;66.92;101489.81;5041233;28;45201;-47
2022/01/03 02:44:42;;;;;;;;;5.00;3.50;;;;;12.85;66.88;101473.13;5041246;28;45262;-49
2022/01/03 02:47:08;;;;;;;;;5.50;4.75;;;;;12.83;66.89;101481.06;5041460;28;45293;-48
2022/01/03 02:49:33;;;;;;;;;8.75;4.25;;;;;12.79;66.88;101479.38;5041233;28;45320;-48
2022/01/03 02:51:58;;;;;;;;;6.50;3.50;;;;;12.80;67.04;101472.31;5023306;28;47365;-47
2022/01/03 02:54:24;;;;;;;;;10.25;4.00;;;;;12.75;67.02;101464.44;5040939;28;45368;-47
2022/01/03 02:56:50;;;;;;;;;9.50;3.25;;;;;12.76;66.66;101466.19;5041232;28;45244;-47
2022/01/03 02:59:19;;;;;;;;;9.00;3.50;;;;;12.75;67.00;101482.91;5041178;28;45417;-45
2022/01/03 03:01:45;;;;;;;;;6.50;3.50;;;;;12.71;66.87;101480.34;5040890;28;45321;-49
2022/01/03 03:04:12;;;;;;;;;4.00;3.00;;;;;12.71;67.03;101475.94;5022975;28;45246;-47
2022/01/03 03:06:37;;;;;;;;;6.75;3.75;;;;;12.70;67.04;101468.03;5040946;28;45258;-45
2022/01/03 03:09:07;;;;;;;;;10.00;4.00;;;;;12.67;67.00;101471.59;5040580;28;45336;-49
2022/01/03 03:11:37;;;;;;;;;10.25;3.75;;;;;12.67;67.32;101469.81;5006683;28;48267;-46
2022/01/03 03:14:03;;;;;;;;;10.75;5.00;;;;;12.66;67.35;101457.53;5040609;28;45345;-48
2022/01/03 03:16:28;;;;;;;;;8.75;7.00;;;;;12.65;67.07;101449.63;5040839;28;45281;-47
2022/01/03 03:18:54;;;;;;;;;4.00;2.50;;;;;12.64;67.20;101448.78;5022703;28;45330;-47
2022/01/03 03:21:20;;;;;;;;;5.50;3.50;;;;;12.64;67.23;101448.78;5040587;28;46266;-49
2022/01/03 03:23:45;;;;;;;;;5.50;5.00;;;;;12.64;67.53;101453.16;5040424;28;45515;-48
2022/01/03 03:26:12;;;;;;;;;9.00;5.00;;;;;12.64;67.38;101446.13;5040550;28;45254;-49
2022/01/03 03:28:37;;;;;;;;;8.00;4.00;;;;;12.64;67.22;101448.78;5040596;28;45387;-47
2022/01/03 03:31:03;;;;;;;;;8.50;3.75;;;;;12.63;66.94;101441.75;5047841;28;45175;-48
2022/01/03 03:33:30;;;;;;;;;6.00;3.25;;;;;12.63;67.22;101449.66;5060570;28;45186;-47
2022/01/03 03:35:56;;;;;;;;;6.00;3.25;;;;;12.62;67.50;101461.09;5060886;28;45638;-45
2022/01/03 03:38:25;;;;;;;;;5.25;3.50;;;;;12.62;67.60;101450.53;5038157;28;45282;-46
2022/01/03 03:40:54;;;;;;;;;6.25;4.50;;;;;12.63;67.34;101452.28;5039974;28;45410;-44
2022/01/03 03:43:20;;;;;;;;;9.00;6.00;;;;;12.61;67.96;101440.88;5040171;28;45261;-44
2022/01/03 03:45:46;;;;;;;;;7.75;5.50;;;;;12.60;67.53;101441.78;5040315;28;45307;-44
2022/01/03 03:48:11;;;;;;;;;7.00;5.25;;;;;12.60;67.40;101441.78;5022281;28;45509;-46
2022/01/03 03:50:37;;;;;;;;;4.25;4.00;;;;;12.61;67.74;101432.09;5040259;28;45226;-46
2022/01/03 03:53:04;;;;;;;;;10.50;4.00;;;;;12.64;67.59;101442.59;5040096;28;45475;-47
2022/01/03 03:55:29;;;;;;;;;7.75;4.50;;;;;12.61;67.65;101443.50;5040114;28;45344;-47
2022/01/03 03:57:55;;;;;;;;;8.50;4.50;;;;;12.60;67.79;101438.28;5039908;28;45324;-49
2022/01/03 04:00:20;;;;;;;;;9.50;4.50;;;;;12.57;67.71;101423.34;5040096;28;45297;-48
2022/01/03 04:02:46;;;;;;;;;8.75;6.00;;;;;12.59;67.54;101431.25;5039956;28;45380;-48
2022/01/03 04:05:12;;;;;;;;;9.75;3.75;;;;;12.57;67.84;101427.78;5022170;28;45499;-46
2022/01/03 04:07:37;;;;;;;;;5.00;4.00;;;;;12.51;67.86;101412.88;5040026;28;45250;-47
2022/01/03 04:10:08;;;;;;;;;7.00;5.50;;;;;12.59;67.67;101423.34;5039560;28;45251;-45
2022/01/03 04:12:33;;;;;;;;;4.50;4.25;;;;;12.59;67.64;101411.03;5039893;28;45340;-46
2022/01/03 04:14:58;;;;;;;;;7.50;4.50;;;;;12.57;67.69;101415.44;5040095;28;45311;-45
2022/01/03 04:17:24;;;;;;;;;5.00;4.00;;;;;12.58;67.60;101408.41;5040004;28;45328;-45
2022/01/03 04:19:49;;;;;;;;;7.75;4.00;;;;;12.56;67.66;101400.50;5039814;28;46132;-48
2022/01/03 04:22:15;;;;;;;;;6.00;2.75;;;;;12.59;67.89;101395.22;5021903;28;45322;-47
2022/01/03 04:24:40;;;;;;;;;7.25;4.50;;;;;12.57;67.50;101390.88;5039594;28;45309;-46
2022/01/03 04:27:06;;;;;;;;;6.00;3.75;;;;;12.61;67.81;101395.19;5039845;28;45372;-49
2022/01/03 04:29:31;;;;;;;;;5.50;3.75;;;;;12.60;67.53;101382.91;5039550;28;45639;-49
2022/01/03 04:31:57;;;;;;;;;4.00;3.25;;;;;12.59;67.82;101381.16;5054747;28;45358;-48
2022/01/03 04:34:22;;;;;;;;;6.25;4.00;;;;;12.59;67.99;101387.31;5060279;28;45312;-44
2022/01/03 04:36:48;;;;;;;;;5.75;4.75;;;;;12.59;67.68;101389.94;5057888;28;45318;-47
2022/01/03 04:39:13;;;;;;;;;2.75;1.50;;;;;12.63;67.76;101389.00;5039230;28;46266;-48
2022/01/03 04:41:39;;;;;;;;;5.00;2.00;;;;;12.61;67.56;101382.88;5039471;28;46445;-45
2022/01/03 04:44:05;;;;;;;;;7.50;4.00;;;;;12.62;67.92;101378.50;5039768;28;45233;-46
2022/01/03 04:46:32;;;;;;;;;6.75;3.75;;;;;12.62;67.78;101371.44;5039630;28;45167;-45
2022/01/03 04:48:58;;;;;;;;;3.00;3.00;;;;;12.62;67.92;101363.53;5039725;28;47065;-47
2022/01/03 04:51:23;;;;;;;;;5.25;3.00;;;;;12.58;67.68;101353.94;5042473;28;45327;-48
2022/01/03 04:53:48;;;;;;;;;9.00;4.00;;;;;12.55;67.96;101359.22;5043029;28;45313;-48
2022/01/03 04:56:14;;;;;;;;;7.25;3.25;;;;;12.57;67.65;101367.13;5042754;28;45300;-49
2022/01/03 04:58:40;;;;;;;;;6.75;4.25;;;;;12.57;67.81;101375.03;5043155;28;45378;-47
2022/01/03 05:01:06;;;;;;;;;5.75;2.00;;;;;12.54;67.91;101372.44;5042876;28;45324;-44
2022/01/03 05:03:32;;;;;;;;;6.25;3.00;;;;;12.55;68.09;101371.53;5025119;28;45342;-44
2022/01/03 05:05:58;;;;;;;;;4.50;3.00;;;;;12.56;68.05;101368.88;5042668;28;45535;-46
2022/01/03 05:08:23;;;;;;;;;8.00;3.00;;;;;12.55;68.05;101367.13;5042672;28;45950;-45
2022/01/03 05:10:49;;;;;;;;;6.25;4.00;;;;;12.54;67.95;101368.03;5042330;28;45248;-46
2022/01/03 05:13:14;;;;;;;;;5.25;2.50;;;;;12.54;67.82;101373.31;5043210;28;45409;-45
2022/01/03 05:15:39;;;;;;;;;9.00;5.00;;;;;12.54;67.97;101357.50;5042605;28;45479;-47
2022/01/03 05:18:05;;;;;;;;;3.75;3.50;;;;;12.56;68.18;101360.97;5042663;28;46260;-45
2022/01/03 05:20:30;;;;;;;;;6.50;4.25;;;;;12.53;67.92;101358.38;5042452;28;45200;-48
2022/01/03 05:22:56;;;;;;;;;5.00;4.00;;;;;12.52;67.97;101357.50;5042837;28;45755;-46
2022/01/03 05:25:21;;;;;;;;;6.00;3.25;;;;;12.55;68.29;101361.00;5042041;28;45380;-47
2022/01/03 05:27:48;;;;;;;;;8.25;2.50;;;;;12.53;67.96;101347.84;5042439;28;46383;-49
2022/01/03 05:30:13;;;;;;;;;4.00;2.25;;;;;12.50;68.04;101348.75;5042969;28;45412;-46
2022/01/03 05:32:38;;;;;;;;;4.75;3.00;;;;;12.55;68.30;101363.63;5062630;28;45399;-44
2022/01/03 05:35:05;;;;;;;;;7.00;3.25;;;;;12.55;68.25;101366.28;5062440;28;45415;-47
2022/01/03 05:37:30;;;;;;;;;7.25;2.75;;;;;12.53;68.21;101361.03;5054922;28;46732;-46
2022/01/03 05:39:55;;;;;;;;;6.25;2.00;;;;;12.55;68.09;101363.63;5041629;28;45443;-49
2022/01/03 05:42:21;;;;;;;;;10.25;4.00;;;;;12.54;68.17;101360.13;5042585;28;45471;-44
2022/01/03 05:44:46;;;;;;;;;7.00;2.50;;;;;12.52;68.20;101352.22;5024347;28;45441;-47
2022/01/03 05:47:12;;;;;;;;;3.00;2.00;;;;;12.55;68.18;101358.34;5042199;28;46070;-48
2022/01/03 05:49:37;;;;;;;;;6.00;2.00;;;;;12.53;68.30;101363.66;5042004;28;45235;-44
2022/01/03 05:52:03;;;;;;;;;7.50;3.50;;;;;12.55;68.05;101353.94;5042372;28;45339;-45
2022/01/03 05:54:28;;;;;;;;;13.00;5.25;;;;;12.54;68.26;101356.59;5023907;28;45664;-48
2022/01/03 05:56:53;;;;;;;;;6.75;2.50;;;;;12.52;68.23;101357.50;5042174;28;45312;-46
2022/01/03 05:59:19;;;;;;;;;7.25;5.00;;;;;12.55;68.04;101353.94;5042201;28;45269;-45
2022/01/03 06:01:46;;;;;;;;;10.25;4.50;;;;;12.56;68.06;101365.38;5041213;28;45455;-45
2022/01/03 06:04:19;;;;;;;;;8.00;4.00;;;;;12.55;67.88;101367.13;5042051;28;45222;-45
2022/01/03 06:06:55;;;;;;;;;5.25;4.00;;;;;12.53;68.28;101368.94;5049361;28;46170;-48
2022/01/03 06:09:22;;;;;;;;;6.25;3.25;;;;;12.52;68.13;101372.44;5061539;28;45420;-45
2022/01/03 06:11:48;;;;;;;;;5.00;3.75;;;;;12.52;67.94;101368.03;5062051;28;45538;-45
2022/01/03 06:14:18;;;;;;;;;6.25;5.00;;;;;12.49;68.09;101367.19;5061805;28;45435;-48
2022/01/03 06:16:45;;;;;;;;;5.50;2.00;;;;;12.52;67.85;101364.53;5061937;28;45241;-49
2022/01/03 06:19:12;;;;;;;;;5.50;5.00;;;;;12.54;68.06;101367.16;5043677;28;45405;-45
2022/01/03 06:21:41;;;;;;;;;9.25;4.50;;;;;12.48;68.37;101357.56;5061867;28;45258;-48
2022/01/03 06:24:09;;;;;;;;;11.75;4.75;;;;;12.50;68.32;101359.28;5061229;28;45542;-47
2022/01/03 06:26:35;;;;;;;;;4.00;3.00;;;;;12.50;68.18;101361.03;5043548;28;47233;-47
2022/01/03 06:29:00;;;;;;;;;7.75;5.25;;;;;12.50;68.27;101361.03;5061538;28;45213;-58
2022/01/03 06:31:26;;;;;;;;;3.75;2.00;;;;;12.48;68.17;101347.03;5054978;28;45356;-49
2022/01/03 06:33:51;;;;;;;;;6.75;4.00;;;;;12.47;68.31;101346.13;5061521;28;45272;-45
2022/01/03 06:36:17;;;;;;;;;8.50;6.00;;;;;12.47;68.58;101348.78;5061607;28;45982;-48
2022/01/03 06:38:42;;;;;;;;;11.50;6.75;;;;;12.50;68.14;101354.03;5043965;28;45234;-47
2022/01/03 06:41:08;;;;;;;;;5.00;3.75;;;;;12.49;68.46;101349.63;5041221;28;45290;-45
2022/01/03 06:43:33;;;;;;;;;6.75;4.75;;;;;12.48;68.28;101336.47;5041079;28;45378;-47
2022/01/03 06:45:58;;;;;;;;;7.00;5.00;;;;;12.50;68.12;101338.22;5041347;28;45426;-50
2022/01/03 06:48:24;;;;;;;;;9.25;5.00;;;;;12.50;68.22;101332.94;5041069;28;45312;-45
2022/01/03 06:50:50;;;;;;;;;3.00;2.00;;;;;12.51;68.18;101332.06;5041387;28;45451;-49
2022/01/03 06:53:15;;;;;;;;;9.00;6.25;;;;;12.49;68.22;101327.66;5023994;28;45357;-44
2022/01/03 06:55:41;;;;;;;;;7.25;3.75;;;;;12.49;68.31;101325.03;5042954;28;45513;-45
2022/01/03 06:58:06;;;;;;;;;4.75;3.75;;;;;12.47;68.45;101327.69;5043689;28;45344;-46
2022/01/03 07:00:31;;;;;;;;;5.50;4.00;;;;;12.47;68.36;101332.97;5041270;28;45663;-48
2022/01/03 07:02:57;;;;;;;;;2.00;2.00;;;;;12.50;68.29;101335.56;5040983;28;45397;-45
2022/01/03 07:05:23;;;;;;;;;12.50;4.25;;;;;12.46;68.37;101341.75;5040540;28;47082;-46
2022/01/03 07:07:49;;;;;;;;;4.25;4.00;;;;;12.51;68.25;101336.44;5040831;28;45234;-48
2022/01/03 07:10:17;;;;;;;;;4.50;3.50;;;;;12.52;68.36;101331.13;5040734;28;45419;-50
2022/01/03 07:12:42;;;;;;;;;8.50;4.50;;;;;12.51;68.38;101320.63;5040135;28;45424;-47
2022/01/03 07:20:37;;;;;;;;;8.50;2.50;;;;;12.46;68.92;101314.53;5040790;28;45282;-44
2022/01/03 07:23:03;;;;;;;;;9.50;4.50;;;;;12.46;68.49;101307.47;5040764;28;45262;-50
2022/01/03 07:25:28;;;;;;;;;2.75;2.75;;;;;12.43;68.68;101318.09;5040056;28;45945;-49
2022/01/03 07:27:54;;;;;;;;;4.00;2.50;;;;;12.44;68.97;101317.19;5040620;28;45277;-47
2022/01/03 07:30:19;;;;;;;;;9.25;6.75;;;;;12.45;68.76;101310.16;5042025;28;45459;-47
2022/01/03 07:32:45;;;;;;;;;7.00;4.75;;;;;12.45;68.80;101320.69;5060751;28;45339;-47
2022/01/03 07:35:13;;;;;;;;;8.00;5.25;;;;;12.44;68.79;101330.38;5060532;28;46228;-49
2022/01/03 07:37:39;;;;;;;;;6.75;3.25;;;;;12.44;68.72;101319.84;5042435;28;45311;-50
2022/01/03 07:40:05;;;;;;;;;5.50;4.00;;;;;12.41;69.05;101314.59;5060032;28;45187;-49
2022/01/03 07:42:30;;;;;;;;;9.75;7.00;;;;;12.40;68.86;101320.78;5060536;28;45593;-45
2022/01/03 07:44:56;;;;;;;;;9.00;7.00;;;;;12.40;68.83;101306.69;5060382;28;45221;-44
2022/01/03 07:47:21;;;;;;;;;8.00;4.75;;;;;12.44;68.88;101311.03;5060550;28;45307;-45
2022/01/03 07:49:46;;;;;;;;;5.75;5.25;;;;;12.41;68.84;101317.22;5060533;28;45204;-48
2022/01/03 07:52:12;;;;;;;;;6.25;4.75;;;;;12.42;68.73;101321.59;5060503;28;45252;-45
2022/01/03 07:54:37;;;;;;;;;6.75;4.00;;;;;12.42;69.03;101313.69;5059832;28;46167;-48
2022/01/03 07:57:03;;;;;;;;;7.75;5.75;;;;;12.46;68.94;101314.53;5042159;28;45301;-44
2022/01/03 07:59:28;;;;;;;;;8.50;4.00;;;;;12.45;68.94;101310.16;5060356;28;45387;-44
2022/01/03 08:01:53;;;;;;;;;11.75;7.25;;;;;12.43;69.10;101309.31;5060440;28;45372;-45
2022/01/03 08:04:19;;;;;;;;;2.75;1.25;;;;;12.44;68.99;101292.59;5059964;28;46141;-46
2022/01/03 08:06:45;;;;;;;;;6.50;3.50;;;;;12.43;69.23;101294.34;5060199;28;45304;-49
2022/01/03 08:09:10;;;;;;;;;3.75;2.00;;;;;12.43;69.10;101304.03;5059847;28;45378;-45
2022/01/03 08:11:35;;;;;;;;;4.25;4.00;;;;;12.42;69.23;101304.94;5060299;28;45455;-46
2022/01/03 08:14:01;;;;;;;;;9.75;2.75;;;;;12.42;69.08;101294.38;5041841;28;45297;-44
2022/01/03 08:16:27;;;;;;;;;10.25;5.00;;;;;12.40;68.90;101297.03;5025413;28;45489;-45
2022/01/03 08:18:52;;;;;;;;;8.50;5.50;;;;;12.42;69.28;101289.13;5060148;28;45298;-47
2022/01/03 08:21:18;;;;;;;;;7.75;4.00;;;;;12.44;69.29;101292.59;5059956;28;45334;-44
2022/01/03 08:23:43;;;;;;;;;10.75;7.00;;;;;12.44;69.19;101293.47;5059560;28;46063;-48
2022/01/03 08:26:08;;;;;;;;;10.00;4.75;;;;;12.42;69.10;101283.84;5059284;28;45460;-45
2022/01/03 08:28:34;;;;;;;;;7.00;5.00;;;;;12.42;69.35;101281.22;5060037;28;45305;-47
2022/01/03 08:30:59;;;;;;;;;5.50;3.00;;;;;12.44;69.08;101268.84;5053227;28;45285;-46
2022/01/03 08:33:25;;;;;;;;;6.00;3.00;;;;;12.43;69.44;101264.50;5059780;28;45211;-47
2022/01/03 08:35:50;;;;;;;;;2.25;1.25;;;;;12.43;69.09;101261.88;5059908;28;45229;-45
2022/01/03 08:38:15;;;;;;;;;10.00;4.50;;;;;12.43;69.25;101267.13;5046586;28;45367;-47
2022/01/03 08:40:41;;;;;;;;;8.00;4.00;;;;;12.42;69.49;101265.41;5031270;28;45760;-48
2022/01/03 08:43:06;;;;;;;;;11.50;6.50;;;;;12.43;69.52;101267.13;5046433;28;46177;-47
2022/01/03 08:45:32;;;;;;;;;8.00;3.75;;;;;12.45;69.49;101273.25;5039529;28;45259;-46
2022/01/03 08:47:58;;;;;;;;;11.75;6.00;;;;;12.42;69.48;101262.75;5039785;28;45371;-45
2022/01/03 08:50:23;;;;;;;;;5.50;4.25;;;;;12.44;69.19;101279.41;5021711;28;45511;-48
2022/01/03 08:52:49;;;;;;;;;7.25;2.25;;;;;12.41;69.39;101269.78;5039407;28;45350;-50
2022/01/03 08:55:15;;;;;;;;;6.00;3.00;;;;;12.41;69.62;101267.13;5039360;28;45295;-47
2022/01/03 08:57:41;;;;;;;;;9.25;5.00;;;;;12.40;69.67;101275.06;5039716;28;45256;-45
2022/01/03 09:00:09;;;;;;;;;8.50;4.75;;;;;12.44;69.55;101271.50;5021504;28;45476;-49
2022/01/03 09:02:34;;;;;;;;;4.25;3.75;;;;;12.44;69.56;101266.22;5039186;28;45269;-46
2022/01/03 09:04:59;;;;;;;;;11.00;4.00;;;;;12.47;69.65;101279.38;5021097;28;45277;-48
2022/01/03 09:07:25;;;;;;;;;6.00;4.00;;;;;12.47;69.71;101269.69;5039766;28;45233;-46
2022/01/03 09:09:50;;;;;;;;;4.25;2.25;;;;;12.49;69.37;101280.22;5039049;28;45249;-46
2022/01/03 09:12:15;;;;;;;;;6.00;3.75;;;;;12.51;69.23;101270.53;5021343;28;47275;-46
2022/01/03 09:14:42;;;;;;;;;9.00;4.25;;;;;12.51;69.61;101260.88;5039209;28;45167;-48
2022/01/03 09:17:08;;;;;;;;;9.25;5.75;;;;;12.47;69.78;101259.16;5039313;28;45266;-47
2022/01/03 09:19:35;;;;;;;;;5.50;4.50;;;;;12.51;69.75;101258.25;5038912;28;45361;-49
2022/01/03 09:22:39;;;;;;;;;8.75;3.00;;;;;12.53;69.33;101255.56;5038912;28;46155;-44
2022/01/03 09:30:11;;;;;;;;;8.50;3.25;;;;;12.55;69.78;101261.66;5052241;28;45261;-48
2022/01/03 09:32:37;;;;;;;;;6.75;4.00;;;;;12.55;69.62;101263.44;5058950;28;46272;-44
2022/01/03 09:35:04;;;;;;;;;6.00;5.00;;;;;12.59;69.64;101250.22;5058842;28;45229;-44
2022/01/03 09:37:29;;;;;;;;;8.50;5.75;;;;;12.60;69.53;101254.59;5053846;28;45395;-46
2022/01/03 09:39:55;;;;;;;;;8.75;6.50;;;;;12.63;69.53;101244.00;5041774;28;46140;-46
2022/01/03 09:42:27;;;;;;;;;7.00;5.00;;;;;12.63;69.75;101249.25;5042289;28;46320;-45
2022/01/03 09:44:53;;;;;;;;;8.50;5.00;;;;;12.64;69.72;101240.47;5042177;28;45479;-47
2022/01/03 09:47:21;;;;;;;;;7.00;5.25;;;;;12.64;69.71;101247.50;5042286;28;45266;-46
2022/01/03 09:49:47;;;;;;;;;6.25;6.25;;;;;12.62;69.70;101250.16;5024042;28;45401;-47
2022/01/03 09:52:14;;;;;;;;;14.00;8.75;;;;;12.66;69.38;101246.56;5042024;28;46163;-47
2022/01/03 09:54:41;;;;;;;;;0.00;0.00;;;;;12.67;69.53;101281.75;5041781;28;45246;-49
2022/01/03 09:57:07;;;;;;;;;9.50;4.00;;;;;12.65;69.40;101265.94;5042131;28;45540;-48
2022/01/03 09:59:34;;;;;;;;;5.25;4.00;;;;;12.68;69.46;101265.88;5041718;28;45474;-45
2022/01/03 10:02:00;;;;;;;;;6.25;4.25;;;;;12.72;69.85;101260.59;5032230;28;47078;-46
2022/01/03 10:04:26;;;;;;;;;9.50;5.75;;;;;12.71;69.63;101269.38;5046579;28;45339;-44
2022/01/03 10:06:52;;;;;;;;;9.75;6.00;;;;;12.73;69.92;101255.28;5024040;28;45337;-46
2022/01/03 10:09:19;;;;;;;;;6.25;4.75;;;;;12.71;69.50;101251.78;5041417;28;45413;-46
2022/01/03 10:11:44;;;;;;;;;8.75;6.75;;;;;12.64;69.65;101245.75;5041740;28;46203;-47
2022/01/03 10:14:12;;;;;;;;;5.50;3.75;;;;;12.68;69.57;101250.06;5041551;28;45162;-45
2022/01/03 10:16:42;;;;;;;;;9.00;4.00;;;;;12.75;69.81;101248.19;5041895;28;45324;-49
2022/01/03 10:19:08;;;;;;;;;9.75;3.25;;;;;12.73;70.07;101257.91;5041494;28;45434;-48
2022/01/03 10:21:42;;;;;;;;;4.00;3.00;;;;;12.76;69.54;101276.31;5041823;28;45463;-45
2022/01/03 10:24:08;;;;;;;;;10.50;5.50;;;;;12.74;69.71;101258.78;5041144;28;45379;-48
2022/01/03 10:26:36;;;;;;;;;8.25;4.75;;;;;12.72;70.08;101247.41;5023817;28;45233;-49
2022/01/03 10:29:10;;;;;;;;;8.50;5.50;;;;;12.75;69.75;101247.34;5041483;28;45251;-45
2022/01/03 10:31:39;;;;;;;;;5.50;4.00;;;;;12.77;69.69;101235.00;5035367;28;46490;-45
2022/01/03 10:34:07;;;;;;;;;9.50;5.25;;;;;12.77;69.92;101243.78;5061222;28;45402;-47
2022/01/03 10:36:35;;;;;;;;;7.25;5.00;;;;;12.75;69.56;101228.88;5043501;28;45376;-48
2022/01/03 10:39:22;;;;;;;;;10.00;4.25;;;;;12.78;69.64;101234.09;5023031;28;45274;-47
2022/01/03 10:41:53;;;;;;;;;12.50;5.75;;;;;12.77;69.68;101225.31;5041000;28;46235;-48
2022/01/03 10:44:31;;;;;;;;;6.50;3.00;;;;;12.84;69.62;101224.34;5041430;28;45237;-46
2022/01/03 10:46:57;;;;;;;;;8.00;6.25;;;;;12.86;69.63;101224.31;5041228;28;45218;-44
2022/01/03 10:49:25;;;;;;;;;7.50;4.50;;;;;12.90;69.85;101217.22;5041095;28;45214;-44
2022/01/03 10:51:50;;;;;;;;;8.75;6.00;;;;;12.90;69.77;101206.66;5023057;28;46775;-48
2022/01/03 10:54:18;;;;;;;;;5.75;4.25;;;;;12.92;69.35;101212.81;5040845;28;45340;-49
2022/01/03 10:56:50;;;;;;;;;6.00;3.00;;;;;12.90;69.82;101220.72;5023266;28;46536;-45
2022/01/03 10:59:25;;;;;;;;;19.00;16.00;;;;;12.90;69.77;101210.16;5040912;28;45475;-47
2022/01/03 11:02:04;;;;;;;;;6.50;4.00;;;;;12.96;69.72;101209.22;5023044;28;48342;-48
2022/01/03 11:04:46;;;;;;;;;8.25;3.25;;;;;12.99;69.54;101196.84;5040976;28;45361;-49
2022/01/03 11:13:16;;;;;;;;;5.00;4.00;;;;;13.00;69.37;101176.59;5045532;28;45368;-46
2022/01/03 11:15:48;;;;;;;;;5.00;4.00;;;;;13.03;69.15;101180.94;5060966;28;45313;-48
2022/01/03 11:18:38;;;;;;;;;7.00;4.75;;;;;13.04;69.32;101166.88;5061212;28;45328;-49
2022/01/03 11:21:09;;;;;;;;;6.50;4.75;;;;;13.02;69.71;101164.25;5043998;28;45475;-48
2022/01/03 11:23:35;;;;;;;;;14.00;6.75;;;;;13.00;69.35;101166.03;5060588;28;46161;-46
2022/01/03 11:26:05;;;;;;;;;11.75;6.25;;;;;13.07;69.73;101156.25;5042148;28;45479;-48
2022/01/03 11:28:33;;;;;;;;;10.50;7.00;;;;;13.09;69.17;101154.47;5060639;28;45348;-49
2022/01/03 11:30:59;;;;;;;;;11.50;5.00;;;;;13.12;69.51;101144.72;5053899;28;45187;-43
2022/01/03 11:33:26;;;;;;;;;10.75;5.75;;;;;13.14;69.22;101144.69;5060360;28;45256;-47
2022/01/03 11:35:51;;;;;;;;;8.25;5.00;;;;;13.16;69.24;101133.19;5060652;28;45248;-44
2022/01/03 11:38:23;;;;;;;;;9.00;2.75;;;;;13.15;69.07;101134.09;5046443;28;45453;-46
2022/01/03 11:40:49;;;;;;;;;7.50;4.50;;;;;13.15;69.56;101131.44;5022380;28;45497;-49
2022/01/03 11:43:15;;;;;;;;;7.75;3.75;;;;;13.17;69.49;101129.66;5040070;28;45979;-45